Aérodrome :
LOGIN :

S'inscrire | Disclaimer

   EN    FR    IT 

 










Légende :    VFR   VFR Marginal   IFR   IFR Intensif   IFR Très Intensif
Visi : 
Plafond : 
>= 8 km
>= 3000ft
5 à 8 km
1000 à 3000 ft
1500m à 5 km
500 à 1000 ft
800 à 1500m
200 à 500 ft
< 800m
< 200 ft
Symboles :   Orages  Brouillard  Fortes neiges  Fortes précipitations  Vent > 20 kt
SIGMETs :   Divers  Orages  Givrage  Turbulence  Onde Orograph.  Cendres Volcan.






- Altitude de l'aérodrome : 278 ft
- Code IATA : RJK


LDRI - Rijeka

DERNIER METAR :
  • 110300Z 04016G29KT 360V090 CAVOK 07/M10 Q1019

METARs EXPIRÉS :
  • 110230Z 05012KT 360V100 CAVOK 06/M09 Q1019
  • 110200Z 07009G22KT 030V120 CAVOK 07/M09 Q1020
  • 110130Z 04009KT 040V130 CAVOK 07/M09 Q1020
  • 110100Z 06015G25KT 020V110 CAVOK 07/M09 Q1020
  • 110030Z 06016G33KT 010V100 CAVOK 07/M08 Q1020

TAF TAF LDRI
Valide du 11 à 00h jusqu'au 12 à 00h UTC


102325Z 1100/1200 06018G30KT CAVOK TX09/1113Z TN01/1123Z
TEMPO 1100/1110 VRB10KT
BECMG 1110/1112 06008KT



MET'MAP, la Météo Aéronautique d'un coup d'oeil ! - Copyright ORBIFLY Décembre 2007 - Disclaimer

ORBIFLY MET'MAP TEAM :

Programmation & Développement : Alexandra Zaïnal
Sur une idée originale de : Baudouin d'Aumeries
Assistance à la programmation : Marc-Olivier Méhu
Soutien technique & logistique : Manuel Goepfert

Contact : metmap@orbifly.com




SOURCES & CREDITS :

   NOAA